F/V Carmalia — FMFK — position and weather

sailwx.info

Track history (hours):
 
Tides and Currents Weather Stations Pressure Air Temp Water Temp Dewpoint Dewpoint Depression Visibility Wind Speed Wind Dir Waves Ship Positions

F/V Carmalia

Last reported at 2014-Sep-15 22:33 UTC. Time now 2014-Sep-19 01:53 UTC.
Position N 47°58' W 004°57'.

Length 17 m.

Type: Fishing. MMSI: 228222900.

Date/timePositionNaut miles runAvg speedWind from/ knotsBaromVisibWave heightAir tempDewpointWater temp
2014-Sep-15 22:33N 47°58' W 004°57'57 9.0
2014-Sep-15 16:16N 47°42' W 003°36'7 9.4
2014-Sep-15 15:33N 47°41' W 003°26'4 3.9
2014-Sep-15 14:33N 47°44' W 003°22'0 0.0
2014-Sep-15 13:33N 47°44' W 003°22'0 0.1
2014-Sep-15 12:33N 47°44' W 003°22'  
2014-Sep-13 01:33N 47°44' W 003°22'0 0.0
2014-Sep-13 00:33N 47°44' W 003°22'0 0.0
2014-Sep-12 23:33N 47°44' W 003°22'0 0.0
2014-Sep-12 22:33N 47°44' W 003°22'0 0.0
2014-Sep-12 21:33N 47°44' W 003°22'0 0.0
2014-Sep-12 20:33N 47°44' W 003°22'0 0.0
2014-Sep-12 19:33N 47°44' W 003°22'4 4.1
2014-Sep-12 18:33N 47°41' W 003°27'386 7.7
2014-Sep-10 16:10N 50°18' W 012°24'  
Track history (hours):
 
Tides and Currents Weather Stations Pressure Air Temp Water Temp Dewpoint Dewpoint Depression Visibility Wind Speed Wind Dir Waves Ship Positions

F/V Carmalia

Last reported at 2014-Sep-15 22:33 UTC. Time now 2014-Sep-19 01:53 UTC.
Position N 47°58' W 004°57'.

Length 17 m.

Type: Fishing. MMSI: 228222900.

Date/timePositionNaut miles runAvg speedWind from/ knotsBaromVisibWave heightAir tempDewpointWater temp
2014-Sep-15 22:33N 47°58' W 004°57'57 9.0
2014-Sep-15 16:16N 47°42' W 003°36'7 9.4
2014-Sep-15 15:33N 47°41' W 003°26'4 3.9
2014-Sep-15 14:33N 47°44' W 003°22'0 0.0
2014-Sep-15 13:33N 47°44' W 003°22'0 0.1
2014-Sep-15 12:33N 47°44' W 003°22'  
2014-Sep-13 01:33N 47°44' W 003°22'0 0.0
2014-Sep-13 00:33N 47°44' W 003°22'0 0.0
2014-Sep-12 23:33N 47°44' W 003°22'0 0.0
2014-Sep-12 22:33N 47°44' W 003°22'0 0.0
2014-Sep-12 21:33N 47°44' W 003°22'0 0.0
2014-Sep-12 20:33N 47°44' W 003°22'0 0.0
2014-Sep-12 19:33N 47°44' W 003°22'4 4.1
2014-Sep-12 18:33N 47°41' W 003°27'386 7.7
2014-Sep-10 16:10N 50°18' W 012°24'  

Dump ship's entire track history